Time;durP1;ratioP1;P1;durP2;ratioP2;P2;SDS_P1;SDS_P2;PMS_P1;PMS_P2;Temp;Humidity;BMP_temperature;BMP_pressure;BME280_temperature;BME280_humidity;BME280_pressure;Samples;Min_cycle;Max_cycle;Signal;HPM_P1;HPM_P2
2022/01/30 12:03:59;;;;;;;;;;;7.30;18.60;;;;;;5130661;27;19911;-69
2022/01/30 12:06:24;;;;;;;;;;;7.30;13.20;;;;;;5113094;28;19911;-74
2022/01/30 12:08:50;;;;;;;;;;;7.20;9.90;;;;;;5126245;28;20006;-74
2022/01/30 12:11:34;;;;;;;;;;;7.10;8.00;;;;;;5111239;28;19908;-75
2022/01/30 12:14:20;;;;;;;;;;;6.90;8.90;;;;;;5110799;28;19915;-75
2022/01/30 12:16:45;;;;;;;;;;;7.00;12.40;;;;;;5107812;28;19999;-74
2022/01/30 12:19:12;;;;;;;;;;;6.90;14.00;;;;;;5110604;28;19963;-75
2022/01/30 12:21:37;;;;;;;;;;;;;;;;;;5109499;28;20326;-75
2022/01/30 12:24:21;;;;;;;;;;;6.90;17.40;;;;;;5110406;28;19908;-74
2022/01/30 12:27:00;;;;;;;;;;;7.00;20.30;;;;;;5109946;28;20403;-74
2022/01/30 12:29:48;;;;;;;;;;;7.10;13.40;;;;;;5110385;28;19908;-74
2022/01/30 12:32:19;;;;;;;;;;;7.00;12.70;;;;;;5092236;28;20319;-74
2022/01/30 12:34:45;;;;;;;;;;;7.00;11.90;;;;;;5109661;28;19912;-75
2022/01/30 12:37:18;;;;;;;;;;;7.10;12.00;;;;;;5110263;28;19915;-75
2022/01/30 12:39:44;;;;;;;;;;;7.30;9.20;;;;;;5109195;28;19912;-75
2022/01/30 12:42:14;;;;;;;;;;;7.30;9.10;;;;;;5109766;28;20438;-74
2022/01/30 12:44:40;;;;;;;;;;;7.30;10.10;;;;;;5109429;28;19912;-75
2022/01/30 12:47:05;;;;;;;;;;;7.40;7.80;;;;;;5109894;28;19908;-75
2022/01/30 12:49:39;;;;;;;;;;;;;;;;;;5109836;28;20005;-74
2022/01/30 12:52:06;;;;;;;;;;;7.30;6.60;;;;;;5109512;28;19912;-74
2022/01/30 12:54:37;;;;;;;;;;;7.30;8.30;;;;;;5109794;28;19915;-74
2022/01/30 12:57:03;;;;;;;;;;;;;;;;;;5109908;28;20351;-73
2022/01/30 12:59:29;;;;;;;;;;;;;;;;;;5091478;28;19915;-75
2022/01/30 13:01:55;;;;;;;;;;;;;;;;;;5108633;28;19920;-74
2022/01/30 13:04:21;;;;;;;;;;;7.00;12.30;;;;;;5109685;28;19912;-75
2022/01/30 13:06:51;;;;;;;;;;;6.80;12.70;;;;;;5090475;28;20292;-74
2022/01/30 13:09:18;;;;;;;;;;;6.70;9.60;;;;;;5091293;28;19912;-75
2022/01/30 13:11:43;;;;;;;;;;;;;;;;;;5108877;28;19908;-75
2022/01/30 13:14:09;;;;;;;;;;;6.60;9.20;;;;;;5100082;28;19915;-74
2022/01/30 13:16:35;;;;;;;;;;;;;;;;;;5077135;28;19908;-74
2022/01/30 13:19:02;;;;;;;;;;;6.70;9.20;;;;;;5095881;28;19912;-75
2022/01/30 13:21:29;;;;;;;;;;;6.60;8.80;;;;;;5095971;28;19923;-75
2022/01/30 13:23:55;;;;;;;;;;;6.70;7.10;;;;;;5095239;28;19916;-75
2022/01/30 13:26:29;;;;;;;;;;;6.70;5.70;;;;;;5095667;28;19908;-74
2022/01/30 13:28:55;;;;;;;;;;;7.10;4.90;;;;;;5094783;28;20462;-75
2022/01/30 13:31:20;;;;;;;;;;;7.50;4.30;;;;;;5095600;28;19908;-75
2022/01/30 13:34:04;;;;;;;;;;;7.30;2.70;;;;;;5094954;28;19912;-75
2022/01/30 13:36:30;;;;;;;;;;;7.10;4.40;;;;;;5095300;28;19931;-75
2022/01/30 13:38:55;;;;;;;;;;;6.90;5.70;;;;;;5094758;28;20364;-75
2022/01/30 13:41:23;;;;;;;;;;;;;;;;;;5095135;28;20353;-75
2022/01/30 13:43:58;;;;;;;;;;;6.90;6.10;;;;;;5076659;28;19974;-75
2022/01/30 13:49:13;;;;;;;;;;;7.00;8.10;;;;;;5095399;28;19916;-74
2022/01/30 13:51:38;;;;;;;;;;;7.30;4.50;;;;;;5094577;28;19930;-75
2022/01/30 13:54:05;;;;;;;;;;;7.50;2.20;;;;;;5094893;28;20360;-74
2022/01/30 13:56:31;;;;;;;;;;;;;;;;;;5095111;28;19909;-75
2022/01/30 13:58:56;;;;;;;;;;;7.50;1.00;;;;;;5094203;28;19916;-75
2022/01/30 14:01:25;;;;;;;;;;;7.60;1.00;;;;;;5078657;28;20341;-74
2022/01/30 14:03:51;;;;;;;;;;;;;;;;;;5114443;28;19923;-75
2022/01/30 14:06:17;;;;;;;;;;;;;;;;;;5115224;28;19912;-75
2022/01/30 14:08:48;;;;;;;;;;;7.60;1.00;;;;;;5114337;28;19904;-75
2022/01/30 14:11:14;;;;;;;;;;;7.80;1.00;;;;;;5097042;28;19955;-75
2022/01/30 14:13:41;;;;;;;;;;;7.60;1.00;;;;;;5114627;28;19903;-75
2022/01/30 14:16:13;;;;;;;;;;;7.40;1.00;;;;;;5114930;28;20232;-74
2022/01/30 14:18:54;;;;;;;;;;;7.60;1.00;;;;;;5096526;28;19911;-75
2022/01/30 14:21:21;;;;;;;;;;;8.10;1.00;;;;;;5115102;28;19942;-74
2022/01/30 14:23:47;;;;;;;;;;;7.70;1.00;;;;;;5114414;28;19911;-75
2022/01/30 14:26:23;;;;;;;;;;;7.70;1.00;;;;;;5114076;28;19907;-75
2022/01/30 14:28:48;;;;;;;;;;;7.70;1.00;;;;;;5096080;28;19910;-75
2022/01/30 14:31:20;;;;;;;;;;;7.70;1.00;;;;;;5114684;28;20051;-74
2022/01/30 14:33:45;;;;;;;;;;;7.50;1.00;;;;;;5114169;28;19919;-74
2022/01/30 14:36:11;;;;;;;;;;;;;;;;;;5114784;28;19904;-74
2022/01/30 14:38:42;;;;;;;;;;;7.60;1.00;;;;;;5114610;28;19908;-74
2022/01/30 14:41:08;;;;;;;;;;;7.40;1.00;;;;;;5114727;28;20259;-74
2022/01/30 14:43:34;;;;;;;;;;;7.40;1.00;;;;;;5114519;28;19915;-74
2022/01/30 14:45:59;;;;;;;;;;;7.20;1.00;;;;;;5113966;28;19907;-74
2022/01/30 14:48:25;;;;;;;;;;;7.30;1.00;;;;;;5114516;28;20372;-74
2022/01/30 14:50:51;;;;;;;;;;;;;;;;;;5113996;28;19965;-74
2022/01/30 14:53:16;;;;;;;;;;;7.40;1.00;;;;;;5114676;28;20436;-74
2022/01/30 14:55:42;;;;;;;;;;;7.30;1.00;;;;;;5113979;28;20280;-74
2022/01/30 14:58:07;;;;;;;;;;;7.30;1.00;;;;;;5096542;28;19911;-74
2022/01/30 15:00:33;;;;;;;;;;;7.60;1.00;;;;;;5114417;28;20255;-74
2022/01/30 15:02:59;;;;;;;;;;;7.70;1.00;;;;;;5099633;28;20291;-73
2022/01/30 15:05:24;;;;;;;;;;;7.50;1.00;;;;;;5093906;28;19951;-73
2022/01/30 15:07:50;;;;;;;;;;;7.50;1.00;;;;;;5093266;28;19911;-73
2022/01/30 15:10:16;;;;;;;;;;;7.30;1.00;;;;;;5093629;28;19911;-74
2022/01/30 15:12:42;;;;;;;;;;;7.30;1.00;;;;;;5075068;28;20264;-74
2022/01/30 15:15:08;;;;;;;;;;;7.40;1.00;;;;;;5093728;28;19904;-74
2022/01/30 15:17:36;;;;;;;;;;;7.30;1.00;;;;;;5093680;28;19911;-74
2022/01/30 15:20:04;;;;;;;;;;;7.10;1.00;;;;;;5093109;28;19915;-74
2022/01/30 15:22:31;;;;;;;;;;;7.10;1.00;;;;;;5093268;28;19912;-74
2022/01/30 15:24:57;;;;;;;;;;;7.20;1.00;;;;;;5092998;28;19912;-74
2022/01/30 15:27:23;;;;;;;;;;;7.00;1.00;;;;;;5093581;28;19904;-74
2022/01/30 15:29:49;;;;;;;;;;;7.00;1.00;;;;;;5092955;28;19970;-75
2022/01/30 15:32:15;;;;;;;;;;;7.10;1.00;;;;;;5093173;28;19908;-74
2022/01/30 15:34:40;;;;;;;;;;;6.80;1.00;;;;;;5093331;28;19909;-74
2022/01/30 15:37:06;;;;;;;;;;;6.70;1.00;;;;;;5092596;28;20374;-74
2022/01/30 15:39:32;;;;;;;;;;;6.60;1.00;;;;;;5093306;28;20017;-75
2022/01/30 15:41:58;;;;;;;;;;;6.50;1.00;;;;;;5092672;28;20401;-75
2022/01/30 15:44:26;;;;;;;;;;;6.60;1.00;;;;;;5093298;28;19919;-74
2022/01/30 15:49:35;;;;;;;;;;;6.60;1.00;;;;;;5093034;28;19912;-74
2022/01/30 15:52:01;;;;;;;;;;;6.60;1.00;;;;;;5092606;28;20260;-74
2022/01/30 15:54:26;;;;;;;;;;;6.50;1.00;;;;;;5075067;28;19919;-75
2022/01/30 15:56:53;;;;;;;;;;;6.50;1.00;;;;;;5092528;28;20359;-74
2022/01/30 15:59:20;;;;;;;;;;;6.60;1.00;;;;;;5093123;28;19911;-74
2022/01/30 16:01:49;;;;;;;;;;;6.50;1.00;;;;;;5095598;28;19961;-74
2022/01/30 16:04:15;;;;;;;;;;;6.50;1.00;;;;;;5113617;28;19908;-74
2022/01/30 16:06:43;;;;;;;;;;;;;;;;;;5113413;28;19910;-74
2022/01/30 16:12:01;;;;;;;;;;;6.40;1.00;;;;;;5093053;28;19958;-74
2022/01/30 16:17:05;;;;;;;;;;;6.40;1.00;;;;;;5092481;28;19935;-74
2022/01/30 16:19:31;;;;;;;;;;;6.30;1.00;;;;;;5093048;28;20409;-74
2022/01/30 16:21:56;;;;;;;;;;;6.30;1.30;;;;;;5074215;28;19915;-74
2022/01/30 16:24:22;;;;;;;;;;;6.20;2.50;;;;;;5092904;28;19916;-74
2022/01/30 16:26:47;;;;;;;;;;;6.20;2.60;;;;;;5092542;28;20304;-74
2022/01/30 16:29:13;;;;;;;;;;;6.20;3.20;;;;;;5092503;28;19908;-74
2022/01/30 16:31:38;;;;;;;;;;;6.20;3.30;;;;;;5092643;28;19916;-74
2022/01/30 16:34:04;;;;;;;;;;;6.30;3.80;;;;;;5092202;28;19917;-74
2022/01/30 16:36:29;;;;;;;;;;;6.20;3.90;;;;;;5092769;28;19970;-74
2022/01/30 16:38:56;;;;;;;;;;;6.20;4.80;;;;;;5092411;28;20411;-73
2022/01/30 16:41:22;;;;;;;;;;;6.20;5.20;;;;;;5092943;28;19909;-73
2022/01/30 16:43:54;;;;;;;;;;;6.10;5.60;;;;;;5092073;28;20003;-74
2022/01/30 16:47:26;;;;;;;;;;;6.00;6.20;;;;;;5092846;28;19947;-73
2022/01/30 16:49:07;;;;;;;;;;;6.10;6.80;;;;;;5078933;28;19916;-73
2022/01/30 16:51:32;;;;;;;;;;;6.00;6.70;;;;;;5078424;28;20356;-73
2022/01/30 16:53:58;;;;;;;;;;;6.20;7.00;;;;;;5077670;28;20330;-74
2022/01/30 16:56:25;;;;;;;;;;;6.10;7.20;;;;;;5078179;28;19912;-73
2022/01/30 16:58:50;;;;;;;;;;;6.00;7.20;;;;;;5095502;28;19962;-74
2022/01/30 17:01:18;;;;;;;;;;;6.00;7.00;;;;;;5095388;28;19959;-73
2022/01/30 17:03:43;;;;;;;;;;;6.00;7.00;;;;;;5077647;28;20283;-73
2022/01/30 17:06:09;;;;;;;;;;;;;;;;;;5094995;28;19904;-74
2022/01/30 17:08:34;;;;;;;;;;;6.10;6.20;;;;;;5095498;28;19951;-74
2022/01/30 17:11:05;;;;;;;;;;;6.10;7.50;;;;;;5095019;28;20337;-75
2022/01/30 17:13:30;;;;;;;;;;;6.10;7.10;;;;;;5077557;28;19908;-74
2022/01/30 17:15:57;;;;;;;;;;;6.00;8.20;;;;;;5095055;28;19933;-74
2022/01/30 17:18:22;;;;;;;;;;;5.90;7.60;;;;;;5096022;28;19912;-70
2022/01/30 17:20:49;;;;;;;;;;;5.90;9.00;;;;;;5095748;28;20416;-78
2022/01/30 17:23:15;;;;;;;;;;;5.70;9.80;;;;;;5095505;28;19923;-80
2022/01/30 17:25:40;;;;;;;;;;;;;;;;;;5100584;28;20249;-77
2022/01/30 17:28:08;;;;;;;;;;;5.60;11.90;;;;;;5085216;28;19908;-70
2022/01/30 17:30:34;;;;;;;;;;;5.60;12.40;;;;;;5104306;28;19908;-73
2022/01/30 17:32:59;;;;;;;;;;;5.50;11.70;;;;;;5086605;28;20249;-77
2022/01/30 17:35:25;;;;;;;;;;;5.40;11.80;;;;;;5103671;28;19916;-87
2022/01/30 17:37:52;;;;;;;;;;;5.30;12.30;;;;;;5093941;28;19936;-75
2022/01/30 17:40:17;;;;;;;;;;;;;;;;;;5086486;28;19966;-73
2022/01/30 17:42:43;;;;;;;;;;;5.20;12.40;;;;;;5105348;28;19959;-75
2022/01/30 17:45:11;;;;;;;;;;;5.10;12.90;;;;;;5109731;28;20030;-73
2022/01/30 17:47:40;;;;;;;;;;;5.30;13.60;;;;;;5115741;28;19956;-73
2022/01/30 17:50:07;;;;;;;;;;;5.30;13.60;;;;;;5115153;28;20359;-76
2022/01/30 17:52:32;;;;;;;;;;;5.20;14.10;;;;;;5097587;28;19968;-78
2022/01/30 17:54:58;;;;;;;;;;;5.20;14.80;;;;;;5114969;28;19912;-78
2022/01/30 17:57:23;;;;;;;;;;;5.10;15.70;;;;;;5115308;28;19971;-77
2022/01/30 17:59:49;;;;;;;;;;;5.10;16.90;;;;;;5115552;28;19915;-78
2022/01/30 18:02:14;;;;;;;;;;;5.10;16.70;;;;;;5114433;28;19927;-78
2022/01/30 18:04:40;;;;;;;;;;;4.80;18.20;;;;;;5115558;28;19912;-77
2022/01/30 18:07:08;;;;;;;;;;;4.80;20.30;;;;;;5096536;28;20434;-78
2022/01/30 18:09:35;;;;;;;;;;;4.70;21.80;;;;;;5086894;28;19915;-77
2022/01/30 18:12:02;;;;;;;;;;;4.70;22.50;;;;;;5094353;28;19953;-77
2022/01/30 18:14:28;;;;;;;;;;;4.90;24.20;;;;;;5094899;28;19908;-77
2022/01/30 18:16:53;;;;;;;;;;;5.10;25.20;;;;;;5075464;28;19908;-77
2022/01/30 18:19:19;;;;;;;;;;;5.20;28.60;;;;;;5076593;28;19908;-76
2022/01/30 18:21:44;;;;;;;;;;;4.90;26.30;;;;;;5094486;28;19913;-76
2022/01/30 18:24:12;;;;;;;;;;;5.20;31.90;;;;;;5093985;28;19912;-76
2022/01/30 18:26:43;;;;;;;;;;;;;;;;;;5108190;28;19916;-75
2022/01/30 18:29:15;;;;;;;;;;;5.10;31.70;;;;;;5095771;28;19912;-76
2022/01/30 18:31:41;;;;;;;;;;;5.10;33.00;;;;;;5096616;28;20253;-76
2022/01/30 18:34:07;;;;;;;;;;;;;;;;;;5095308;28;20264;-76
2022/01/30 18:36:33;;;;;;;;;;;5.10;34.00;;;;;;5089777;28;19964;-76
2022/01/30 18:39:06;;;;;;;;;;;5.00;33.50;;;;;;5104355;28;19908;-77
2022/01/30 18:41:32;;;;;;;;;;;5.10;36.60;;;;;;5104928;28;19911;-76
2022/01/30 18:43:57;;;;;;;;;;;4.90;34.60;;;;;;5084872;28;19916;-77
2022/01/30 18:46:23;;;;;;;;;;;5.00;36.70;;;;;;5103739;28;20334;-77
2022/01/30 18:48:49;;;;;;;;;;;;;;;;;;5086361;28;19908;-77
2022/01/30 18:51:15;;;;;;;;;;;;;;;;;;5096059;28;19908;-76
2022/01/30 18:53:41;;;;;;;;;;;4.90;36.20;;;;;;5094822;28;19935;-76
2022/01/30 18:56:06;;;;;;;;;;;4.90;39.70;;;;;;5102421;28;20359;-77
2022/01/30 18:58:32;;;;;;;;;;;;;;;;;;5085462;28;19912;-77
2022/01/30 19:00:58;;;;;;;;;;;5.00;38.80;;;;;;5101058;28;20420;-76
2022/01/30 19:03:23;;;;;;;;;;;5.00;40.50;;;;;;5100557;28;19924;-77
2022/01/30 19:05:50;;;;;;;;;;;4.90;41.40;;;;;;5104494;28;20406;-76
2022/01/30 19:08:16;;;;;;;;;;;4.80;43.00;;;;;;5100874;28;19939;-76
2022/01/30 19:10:42;;;;;;;;;;;;;;;;;;5104132;28;19912;-76
2022/01/30 19:13:08;;;;;;;;;;;5.20;45.90;;;;;;5101468;28;19957;-77
2022/01/30 19:15:35;;;;;;;;;;;5.00;44.20;;;;;;5103447;28;19922;-77
2022/01/30 19:18:00;;;;;;;;;;;;;;;;;;5100479;28;19940;-77
2022/01/30 19:20:26;;;;;;;;;;;5.10;48.80;;;;;;5095812;28;19962;-77
2022/01/30 19:22:53;;;;;;;;;;;;;;;;;;5093420;28;20356;-76
2022/01/30 19:25:18;;;;;;;;;;;4.70;49.90;;;;;;5093466;28;19912;-77
2022/01/30 19:27:44;;;;;;;;;;;;;;;;;;5075176;28;19915;-76
2022/01/30 19:30:10;;;;;;;;;;;4.70;54.30;;;;;;5092577;28;20011;-74
2022/01/30 19:32:36;;;;;;;;;;;;;;;;;;5093395;28;19935;-74
2022/01/30 19:35:02;;;;;;;;;;;4.90;55.30;;;;;;5093057;28;19924;-74
2022/01/30 19:37:27;;;;;;;;;;;4.90;55.60;;;;;;5093332;28;19978;-74
2022/01/30 19:39:53;;;;;;;;;;;4.80;56.50;;;;;;5105915;28;19908;-74
2022/01/30 19:42:20;;;;;;;;;;;4.70;58.90;;;;;;5113106;28;19912;-75
2022/01/30 19:44:49;;;;;;;;;;;4.60;60.80;;;;;;5113556;28;19912;-75
2022/01/30 19:47:17;;;;;;;;;;;;;;;;;;5112693;28;20579;-75
2022/01/30 19:49:43;;;;;;;;;;;4.90;67.30;;;;;;5113518;28;19908;-75
2022/01/30 19:52:08;;;;;;;;;;;4.70;66.10;;;;;;5094586;28;19968;-75
2022/01/30 19:54:34;;;;;;;;;;;4.80;67.60;;;;;;5113110;28;20387;-75
2022/01/30 19:56:59;;;;;;;;;;;4.90;68.30;;;;;;5112849;28;19908;-76
2022/01/30 19:59:26;;;;;;;;;;;4.90;68.00;;;;;;5113019;28;19908;-75
2022/01/30 20:01:51;;;;;;;;;;;5.00;68.10;;;;;;5108854;28;19927;-75
2022/01/30 20:04:17;;;;;;;;;;;4.90;66.80;;;;;;5074325;28;19920;-75
2022/01/30 20:06:42;;;;;;;;;;;5.00;67.00;;;;;;5074942;28;19909;-75
2022/01/30 20:09:08;;;;;;;;;;;4.90;66.10;;;;;;5092581;28;20336;-75
2022/01/30 20:11:33;;;;;;;;;;;5.00;67.70;;;;;;5075049;28;20379;-75
2022/01/30 20:13:59;;;;;;;;;;;5.00;67.10;;;;;;5092397;28;20352;-75
2022/01/30 20:16:24;;;;;;;;;;;4.90;66.70;;;;;;5092908;28;19908;-75
2022/01/30 20:18:51;;;;;;;;;;;4.80;67.00;;;;;;5092848;28;19915;-76
2022/01/30 20:21:17;;;;;;;;;;;4.80;67.20;;;;;;5074182;28;20583;-75
2022/01/30 20:23:42;;;;;;;;;;;4.90;67.10;;;;;;5093974;28;19923;-75
2022/01/30 20:26:11;;;;;;;;;;;4.80;67.20;;;;;;5096664;28;20332;-75
2022/01/30 20:28:36;;;;;;;;;;;5.00;66.00;;;;;;5096979;28;19908;-75
2022/01/30 20:31:02;;;;;;;;;;;5.00;64.70;;;;;;5096380;28;20462;-75
2022/01/30 20:33:28;;;;;;;;;;;5.00;63.20;;;;;;5097147;28;20370;-75
2022/01/30 20:35:54;;;;;;;;;;;4.70;63.20;;;;;;5096766;28;20360;-75
2022/01/30 20:38:19;;;;;;;;;;;4.90;64.70;;;;;;5078083;28;20257;-75
2022/01/30 20:40:46;;;;;;;;;;;4.80;64.50;;;;;;5078180;28;19995;-76
2022/01/30 20:43:13;;;;;;;;;;;5.00;66.00;;;;;;5075560;28;19971;-76
2022/01/30 20:45:38;;;;;;;;;;;5.10;63.60;;;;;;5076144;28;19909;-75
2022/01/30 20:48:04;;;;;;;;;;;4.80;61.20;;;;;;5075961;28;19916;-76
2022/01/30 20:50:30;;;;;;;;;;;4.90;62.30;;;;;;5090338;28;20288;-75
2022/01/30 20:52:58;;;;;;;;;;;4.90;61.90;;;;;;5078382;28;19908;-75
2022/01/30 20:55:24;;;;;;;;;;;4.90;59.50;;;;;;5095496;28;19912;-76
2022/01/30 20:57:50;;;;;;;;;;;4.80;57.60;;;;;;5078212;28;20367;-75
2022/01/30 21:00:16;;;;;;;;;;;4.80;57.80;;;;;;5095441;28;20324;-76
2022/01/30 21:02:41;;;;;;;;;;;4.80;57.90;;;;;;5088713;28;20019;-75
2022/01/30 21:05:07;;;;;;;;;;;4.70;57.00;;;;;;5116073;28;19915;-75
2022/01/30 21:07:32;;;;;;;;;;;4.70;56.30;;;;;;5117085;28;20002;-76
2022/01/30 21:10:00;;;;;;;;;;;4.70;54.20;;;;;;5105795;28;20344;-75
2022/01/30 21:12:31;;;;;;;;;;;4.70;53.60;;;;;;5078046;28;19908;-76
2022/01/30 21:14:56;;;;;;;;;;;4.80;53.40;;;;;;5077866;28;20364;-75
2022/01/30 21:17:23;;;;;;;;;;;4.70;49.80;;;;;;5077259;28;20020;-75
2022/01/30 21:19:48;;;;;;;;;;;4.70;48.70;;;;;;5095717;28;19909;-75
2022/01/30 21:22:13;;;;;;;;;;;4.80;47.60;;;;;;5095196;28;20011;-75
2022/01/30 21:24:40;;;;;;;;;;;;;;;;;;5095618;28;20394;-75
2022/01/30 21:27:05;;;;;;;;;;;4.80;46.90;;;;;;5095317;28;19912;-76
2022/01/30 21:29:32;;;;;;;;;;;4.80;45.80;;;;;;5077985;28;19931;-75
2022/01/30 21:31:58;;;;;;;;;;;4.70;44.50;;;;;;5077552;28;19916;-75
2022/01/30 21:34:23;;;;;;;;;;;4.60;43.30;;;;;;5094667;28;19958;-75
2022/01/30 21:36:49;;;;;;;;;;;4.60;43.70;;;;;;5096027;28;20284;-76
2022/01/30 21:39:14;;;;;;;;;;;4.50;43.90;;;;;;5094634;28;19916;-76
2022/01/30 21:41:40;;;;;;;;;;;;;;;;;;5096083;28;20002;-77
2022/01/30 21:44:06;;;;;;;;;;;4.70;41.70;;;;;;5093888;28;19931;-77
2022/01/30 21:46:33;;;;;;;;;;;4.60;41.90;;;;;;5095359;28;19908;-76
2022/01/30 21:48:59;;;;;;;;;;;;;;;;;;5094528;28;19953;-76
2022/01/30 21:51:25;;;;;;;;;;;;;;;;;;5094564;28;20309;-76
2022/01/30 21:53:50;;;;;;;;;;;4.70;38.90;;;;;;5095256;28;19908;-74
2022/01/30 21:56:16;;;;;;;;;;;4.70;37.90;;;;;;5094402;28;19908;-76
2022/01/30 21:58:43;;;;;;;;;;;4.70;37.80;;;;;;5095254;28;19912;-76
2022/01/30 22:01:09;;;;;;;;;;;4.80;37.60;;;;;;5094498;28;19908;-76
2022/01/30 22:03:34;;;;;;;;;;;4.70;36.90;;;;;;5091734;28;19947;-76
2022/01/30 22:06:00;;;;;;;;;;;4.80;37.10;;;;;;5094818;28;20021;-76
2022/01/30 22:08:26;;;;;;;;;;;4.70;35.70;;;;;;5094502;28;20356;-76
2022/01/30 22:10:52;;;;;;;;;;;4.60;37.10;;;;;;5080030;28;19909;-76
2022/01/30 22:13:20;;;;;;;;;;;4.70;38.10;;;;;;5074197;28;19912;-76
2022/01/30 22:15:45;;;;;;;;;;;4.70;36.80;;;;;;5074762;28;19915;-75
2022/01/30 22:18:11;;;;;;;;;;;4.80;35.80;;;;;;5073763;28;19909;-76
2022/01/30 22:20:38;;;;;;;;;;;4.70;35.10;;;;;;5074310;28;19915;-76
2022/01/30 22:23:04;;;;;;;;;;;;;;;;;;5074540;28;19924;-76
2022/01/30 22:25:30;;;;;;;;;;;4.60;35.90;;;;;;5074634;28;19909;-74
2022/01/30 22:27:56;;;;;;;;;;;4.60;36.00;;;;;;5074246;28;20356;-74
2022/01/30 22:30:28;;;;;;;;;;;4.70;34.90;;;;;;5073839;28;19996;-74
2022/01/30 22:32:53;;;;;;;;;;;4.70;34.80;;;;;;5074528;28;19912;-74
2022/01/30 22:35:19;;;;;;;;;;;4.60;36.00;;;;;;5073721;28;20050;-76
2022/01/30 22:37:47;;;;;;;;;;;4.60;37.10;;;;;;5074277;28;20269;-76
2022/01/30 22:40:15;;;;;;;;;;;4.60;36.60;;;;;;5072352;28;19908;-76
2022/01/30 22:42:42;;;;;;;;;;;4.70;36.80;;;;;;5073005;28;19924;-76
2022/01/30 22:45:08;;;;;;;;;;;4.60;35.60;;;;;;5073527;28;20010;-77
2022/01/30 22:47:34;;;;;;;;;;;4.70;35.90;;;;;;5073204;28;20360;-76
2022/01/30 22:49:59;;;;;;;;;;;4.70;35.90;;;;;;5074361;28;19955;-76
2022/01/30 22:52:25;;;;;;;;;;;4.60;37.10;;;;;;5073029;28;19962;-76
2022/01/30 22:54:51;;;;;;;;;;;4.70;36.60;;;;;;5073576;28;20276;-76
2022/01/30 22:57:16;;;;;;;;;;;4.60;37.20;;;;;;5072964;28;19908;-74
2022/01/30 22:59:42;;;;;;;;;;;4.70;37.50;;;;;;5074024;28;19955;-74
2022/01/30 23:02:07;;;;;;;;;;;;;;;;;;5078962;28;19947;-77
2022/01/30 23:04:33;;;;;;;;;;;4.70;37.20;;;;;;5093984;28;19912;-74
2022/01/30 23:06:59;;;;;;;;;;;4.70;38.40;;;;;;5075973;28;20310;-74
2022/01/30 23:09:24;;;;;;;;;;;4.70;39.50;;;;;;5075088;28;19908;-74
2022/01/30 23:11:50;;;;;;;;;;;4.70;40.30;;;;;;5093844;28;19908;-74
2022/01/30 23:14:15;;;;;;;;;;;4.80;39.50;;;;;;5093266;28;19915;-76
2022/01/30 23:16:41;;;;;;;;;;;4.80;39.20;;;;;;5093797;28;20003;-76
2022/01/30 23:19:06;;;;;;;;;;;4.80;39.50;;;;;;5093751;28;19908;-76
2022/01/30 23:21:32;;;;;;;;;;;4.90;39.80;;;;;;5092741;28;19948;-74
2022/01/30 23:23:58;;;;;;;;;;;4.80;40.80;;;;;;5093994;28;19919;-75
2022/01/30 23:26:28;;;;;;;;;;;4.80;41.40;;;;;;5092805;28;20383;-74
2022/01/30 23:28:54;;;;;;;;;;;4.80;41.60;;;;;;5075427;28;19996;-75
2022/01/30 23:31:20;;;;;;;;;;;4.80;42.00;;;;;;5092872;28;19949;-74
2022/01/30 23:33:45;;;;;;;;;;;4.80;42.50;;;;;;5093588;28;20391;-75
2022/01/30 23:36:11;;;;;;;;;;;4.80;42.20;;;;;;5074764;28;19938;-75
2022/01/30 23:38:36;;;;;;;;;;;4.80;43.30;;;;;;5093394;28;20327;-74
2022/01/30 23:41:08;;;;;;;;;;;4.80;43.90;;;;;;5093239;28;19908;-75
2022/01/30 23:43:34;;;;;;;;;;;4.70;44.80;;;;;;5074658;28;19916;-75
2022/01/30 23:45:59;;;;;;;;;;;4.70;44.30;;;;;;5093073;28;19908;-75
2022/01/30 23:48:25;;;;;;;;;;;4.70;45.00;;;;;;5074600;28;19908;-75
2022/01/30 23:50:52;;;;;;;;;;;4.70;46.30;;;;;;5075096;28;19967;-75
2022/01/30 23:53:18;;;;;;;;;;;4.60;45.80;;;;;;5092657;28;19951;-75
2022/01/30 23:55:46;;;;;;;;;;;4.70;45.70;;;;;;5093265;28;20316;-75
2022/01/30 23:58:13;;;;;;;;;;;4.70;46.40;;;;;;5092383;28;19908;-75
